createdAt,value
2023-02-25T00:00:00.196Z,2.79
2023-02-25T00:03:02.391Z,2.71
2023-02-25T00:06:08.596Z,2.64
2023-02-25T00:09:10.420Z,2.36
2023-02-25T00:12:22.154Z,2.24
2023-02-25T00:15:27.015Z,2.21
2023-02-25T00:18:29.144Z,2.16
2023-02-25T00:21:30.983Z,2.05
2023-02-25T00:24:33.772Z,1.96
2023-02-25T00:27:36.486Z,1.89
2023-02-25T00:30:40.793Z,1.92
2023-02-25T00:33:42.860Z,1.88
2023-02-25T00:36:45.130Z,1.82
2023-02-25T00:39:47.035Z,1.89
2023-02-25T00:42:50.167Z,2.01
2023-02-25T00:45:53.377Z,2.12
2023-02-25T00:48:55.492Z,1.92
2023-02-25T00:51:59.937Z,2.03
2023-02-25T00:55:02.218Z,1.86
2023-02-25T00:58:04.151Z,2.03
2023-02-25T01:01:17.802Z,1.89
2023-02-25T01:04:19.676Z,1.79
2023-02-25T01:07:24.126Z,1.70
2023-02-25T01:10:25.887Z,1.60
2023-02-25T01:13:28.228Z,1.36
2023-02-25T01:16:33.297Z,1.44
2023-02-25T01:19:35.905Z,1.36
2023-02-25T01:22:38.184Z,1.32
2023-02-25T01:25:40.538Z,1.31
2023-02-25T01:28:43.740Z,1.32
2023-02-25T01:31:52.662Z,1.25
2023-02-25T01:34:54.499Z,1.36
2023-02-25T01:37:59.645Z,1.52
2023-02-25T01:41:02.228Z,1.30
2023-02-25T01:44:08.075Z,1.39
2023-02-25T01:47:20.050Z,1.21
2023-02-25T01:50:27.238Z,1.12
2023-02-25T01:53:33.371Z,1.11
2023-02-25T01:56:38.199Z,1.02
2023-02-25T01:59:42.188Z,1.02
2023-02-25T02:02:49.151Z,1.12
2023-02-25T02:06:01.584Z,1.28
2023-02-25T02:09:05.481Z,1.26
2023-02-25T02:12:08.253Z,1.23
2023-02-25T02:15:12.924Z,1.36
2023-02-25T02:18:18.193Z,1.28
2023-02-25T02:21:49.585Z,1.26
2023-02-25T02:25:21.170Z,1.39
2023-02-25T02:28:57.926Z,1.52
2023-02-25T02:32:16.379Z,1.61
2023-02-25T02:35:23.367Z,1.33
2023-02-25T02:38:36.131Z,1.47
2023-02-25T02:41:46.381Z,1.36
2023-02-25T02:44:56.274Z,1.41
2023-02-25T02:48:03.462Z,1.30
2023-02-25T02:51:14.620Z,1.26
2023-02-25T02:54:20.090Z,1.43
2023-02-25T02:57:24.404Z,1.46
2023-02-25T03:00:33.655Z,1.55
2023-02-25T03:03:41.231Z,1.39
2023-02-25T03:06:48.821Z,1.22
2023-02-25T03:09:55.568Z,1.16
2023-02-25T03:12:57.599Z,1.29
2023-02-25T03:16:01.762Z,1.31
2023-02-25T03:19:08.724Z,1.18
2023-02-25T03:22:14.153Z,1.27
2023-02-25T03:25:24.082Z,1.17
2023-02-25T03:28:30.415Z,1.24
2023-02-25T03:31:38.001Z,1.05
2023-02-25T03:34:47.009Z,1.09
2023-02-25T03:37:52.021Z,1.19
2023-02-25T03:40:57.896Z,1.07
2023-02-25T03:44:02.865Z,0.88
2023-02-25T03:47:11.009Z,0.95
2023-02-25T03:50:19.172Z,0.93
2023-02-25T03:53:22.022Z,1.01
2023-02-25T03:56:24.377Z,0.98
2023-02-25T03:59:26.697Z,0.88
2023-02-25T04:02:33.220Z,0.85
2023-02-25T04:05:36.757Z,1.07
2023-02-25T04:08:39.281Z,0.92
2023-02-25T04:11:41.599Z,0.92
2023-02-25T04:14:43.432Z,1.05
2023-02-25T04:17:45.836Z,1.05
2023-02-25T04:20:49.580Z,0.93
2023-02-25T04:23:51.376Z,0.89
2023-02-25T04:26:53.240Z,0.80
2023-02-25T04:29:55.569Z,0.83
2023-02-25T04:32:57.350Z,0.94
2023-02-25T04:36:00.764Z,0.85
2023-02-25T04:39:04.888Z,0.84
2023-02-25T04:42:07.090Z,0.83
2023-02-25T04:45:11.536Z,0.90
2023-02-25T04:48:13.359Z,0.92
2023-02-25T04:51:16.749Z,0.98
2023-02-25T04:54:19.388Z,0.94
2023-02-25T04:57:21.187Z,1.03
2023-02-25T05:00:26.291Z,0.97
2023-02-25T05:03:28.187Z,1.06
2023-02-25T05:06:31.512Z,0.99
2023-02-25T05:09:33.425Z,0.91
2023-02-25T05:12:35.301Z,0.88
2023-02-25T05:15:38.336Z,0.96
2023-02-25T05:18:41.549Z,0.81
2023-02-25T05:21:45.197Z,0.88
2023-02-25T05:24:46.944Z,0.91
2023-02-25T05:27:48.757Z,0.92
2023-02-25T05:30:53.404Z,0.86
2023-02-25T05:33:55.271Z,0.90
2023-02-25T05:37:00.979Z,0.82
2023-02-25T05:40:03.186Z,0.80
2023-02-25T05:43:05.304Z,0.81
2023-02-25T05:46:08.715Z,0.75
2023-02-25T05:49:10.915Z,0.67
2023-02-25T05:52:15.016Z,0.78
2023-02-25T05:55:16.988Z,0.86
2023-02-25T05:58:18.956Z,0.89
2023-02-25T06:01:24.515Z,0.86
2023-02-25T06:04:27.688Z,0.86
2023-02-25T06:07:32.094Z,0.89
2023-02-25T06:10:34.779Z,0.88
2023-02-25T06:13:36.934Z,0.87
2023-02-25T06:16:39.503Z,0.98
2023-02-25T06:19:43.495Z,0.93
2023-02-25T06:22:47.224Z,0.86
2023-02-25T06:25:49.052Z,0.84
2023-02-25T06:28:52.564Z,0.81
2023-02-25T06:31:57.968Z,0.93
2023-02-25T06:35:00.753Z,0.86
2023-02-25T06:38:04.187Z,0.78
2023-02-25T06:41:07.673Z,0.80
2023-02-25T06:44:09.447Z,0.70
2023-02-25T06:47:12.252Z,0.63
2023-02-25T06:50:14.087Z,0.54
2023-02-25T06:53:18.284Z,0.61
2023-02-25T06:56:20.466Z,0.59
2023-02-25T06:59:22.729Z,0.53
2023-02-25T07:02:26.753Z,0.62
2023-02-25T07:05:32.285Z,0.51
2023-02-25T07:08:36.833Z,0.55
2023-02-25T07:11:38.779Z,0.56
2023-02-25T07:14:40.567Z,0.62
2023-02-25T07:17:43.001Z,0.67
2023-02-25T07:20:44.812Z,0.64
2023-02-25T07:23:49.007Z,0.68
2023-02-25T07:26:50.796Z,0.69
2023-02-25T07:29:53.707Z,0.75
2023-02-25T07:32:58.562Z,0.86
2023-02-25T07:36:01.567Z,0.84
2023-02-25T07:39:06.036Z,0.83
2023-02-25T07:42:08.243Z,0.85
2023-02-25T07:45:11.649Z,0.99
2023-02-25T07:48:13.435Z,0.94
2023-02-25T07:51:17.317Z,1.02
2023-02-25T07:54:21.624Z,0.99
2023-02-25T07:57:23.782Z,0.95
2023-02-25T08:00:25.974Z,0.96
2023-02-25T08:03:28.046Z,0.90
2023-02-25T08:06:30.334Z,0.84
2023-02-25T08:09:34.568Z,0.93
2023-02-25T08:12:39.146Z,1.09
2023-02-25T08:15:42.276Z,0.98
2023-02-25T08:18:45.355Z,1.04
2023-02-25T08:21:47.109Z,0.94
2023-02-25T08:24:51.623Z,0.98
2023-02-25T08:27:53.763Z,1.04
2023-02-25T08:30:57.754Z,1.03
2023-02-25T08:34:02.593Z,1.00
2023-02-25T08:37:04.958Z,1.06
2023-02-25T08:40:10.013Z,1.04
2023-02-25T08:43:13.215Z,1.15
2023-02-25T08:46:18.410Z,1.22
2023-02-25T08:49:21.147Z,1.24
2023-02-25T08:52:22.998Z,1.16
2023-02-25T08:55:26.550Z,1.23
2023-02-25T08:58:28.310Z,1.27
2023-02-25T09:01:30.466Z,1.33
2023-02-25T09:04:35.570Z,1.37
2023-02-25T09:07:37.459Z,1.28
2023-02-25T09:10:49.795Z,1.34
2023-02-25T09:13:52.723Z,1.37
2023-02-25T09:16:54.752Z,1.38
2023-02-25T09:19:56.989Z,1.40
2023-02-25T09:22:59.156Z,1.55
2023-02-25T09:26:07.062Z,1.53
2023-02-25T09:29:09.115Z,1.56
2023-02-25T09:32:20.470Z,1.73
2023-02-25T09:35:23.072Z,1.79
2023-02-25T09:38:26.563Z,1.89
2023-02-25T09:41:33.761Z,1.85
2023-02-25T09:44:39.254Z,1.93
2023-02-25T09:47:47.990Z,1.91
2023-02-25T09:50:53.257Z,1.80
2023-02-25T09:54:03.317Z,1.98
2023-02-25T09:57:07.535Z,1.90
2023-02-25T10:00:18.248Z,1.98
2023-02-25T10:03:25.426Z,2.08
2023-02-25T10:06:34.336Z,2.07
2023-02-25T10:09:44.969Z,1.94
2023-02-25T10:12:56.609Z,2.07
2023-02-25T10:16:12.691Z,1.95
2023-02-25T10:19:31.990Z,1.89
2023-02-25T10:22:45.022Z,1.93
2023-02-25T10:25:56.130Z,1.96
2023-02-25T10:29:05.621Z,2.01
2023-02-25T10:32:16.888Z,1.93
2023-02-25T10:35:26.120Z,2.04
2023-02-25T10:38:29.012Z,2.08
2023-02-25T10:41:32.330Z,2.05
2023-02-25T10:44:35.851Z,1.86
2023-02-25T10:47:45.162Z,1.93
2023-02-25T10:51:02.865Z,1.89
2023-02-25T10:54:07.073Z,1.91
2023-02-25T10:57:16.329Z,1.98
2023-02-25T11:00:27.864Z,1.90
2023-02-25T11:03:33.720Z,2.04
2023-02-25T11:06:37.888Z,2.06
2023-02-25T11:09:39.968Z,1.98
2023-02-25T11:12:44.249Z,1.97
2023-02-25T11:15:51.123Z,1.89
2023-02-25T11:18:56.332Z,1.86
2023-02-25T11:22:08.108Z,1.91
2023-02-25T11:25:18.870Z,1.96
2023-02-25T11:28:29.630Z,1.97
2023-02-25T11:31:38.298Z,2.16
2023-02-25T11:34:49.142Z,2.14
2023-02-25T11:37:52.294Z,2.09
2023-02-25T11:40:54.371Z,2.11
2023-02-25T11:43:56.416Z,2.17
2023-02-25T11:47:23.280Z,2.17
2023-02-25T11:50:32.989Z,2.15
2023-02-25T11:53:58.160Z,2.12
2023-02-25T11:57:08.538Z,2.16
2023-02-25T12:00:24.891Z,2.12
2023-02-25T12:03:50.932Z,2.22
2023-02-25T12:07:10.964Z,2.21
2023-02-25T12:10:35.859Z,2.33
2023-02-25T12:14:14.359Z,2.37
2023-02-25T12:17:54.262Z,2.26
2023-02-25T12:21:40.176Z,2.19
2023-02-25T12:24:57.496Z,2.21
2023-02-25T12:28:49.937Z,1.89
2023-02-25T12:32:23.167Z,1.93
2023-02-25T12:35:55.402Z,1.98
2023-02-25T12:39:36.763Z,1.84
2023-02-25T12:42:49.452Z,1.70
2023-02-25T12:46:15.402Z,1.81
2023-02-25T12:49:52.054Z,1.94
2023-02-25T12:53:17.974Z,1.91
2023-02-25T12:57:00.218Z,1.77
2023-02-25T13:00:40.071Z,1.66
2023-02-25T13:04:02.414Z,1.73
2023-02-25T13:07:48.062Z,1.62
2023-02-25T13:10:58.625Z,1.51
2023-02-25T13:14:37.761Z,1.60
2023-02-25T13:18:05.554Z,1.64
2023-02-25T13:21:22.620Z,1.43
2023-02-25T13:24:45.142Z,1.52
2023-02-25T13:28:10.161Z,1.40
2023-02-25T13:34:49.250Z,1.40
2023-02-25T13:38:02.037Z,1.52
2023-02-25T13:41:18.217Z,1.28
2023-02-25T13:45:11.879Z,1.31
2023-02-25T13:48:49.597Z,1.37
2023-02-25T13:52:25.378Z,1.48
2023-02-25T13:55:45.814Z,1.37
2023-02-25T13:59:08.160Z,1.33
2023-02-25T14:02:26.122Z,1.21
2023-02-25T14:05:58.893Z,1.32
2023-02-25T14:09:16.429Z,1.34
2023-02-25T14:12:32.559Z,1.23
2023-02-25T14:15:47.448Z,1.32
2023-02-25T14:19:04.320Z,1.29
2023-02-25T14:22:23.420Z,1.23
2023-02-25T14:25:39.580Z,1.13
2023-02-25T14:28:49.221Z,1.02
2023-02-25T14:32:11.954Z,1.04
2023-02-25T14:35:41.127Z,1.02
2023-02-25T14:39:12.462Z,0.96
2023-02-25T14:42:38.500Z,0.99
2023-02-25T14:45:45.078Z,0.81
2023-02-25T14:48:58.329Z,0.98
2023-02-25T14:52:26.823Z,0.88
2023-02-25T14:55:59.631Z,0.77
2023-02-25T14:59:47.729Z,0.84
2023-02-25T15:03:18.011Z,0.85
2023-02-25T15:06:27.045Z,0.83
2023-02-25T15:10:01.624Z,0.84
2023-02-25T15:13:47.864Z,0.90
2023-02-25T15:17:12.512Z,0.89
2023-02-25T15:20:26.968Z,0.87
2023-02-25T15:23:48.955Z,0.93
2023-02-25T15:26:52.884Z,1.01
2023-02-25T15:29:59.117Z,1.01
2023-02-25T15:33:24.074Z,0.87
2023-02-25T15:36:41.993Z,0.95
2023-02-25T15:39:50.890Z,0.81
2023-02-25T15:42:54.696Z,0.87
2023-02-25T15:46:37.546Z,0.89
2023-02-25T15:49:45.985Z,1.01
2023-02-25T15:52:59.139Z,0.96
2023-02-25T15:56:40.040Z,0.94
2023-02-25T15:59:47.404Z,0.95
2023-02-25T16:02:58.480Z,0.82
2023-02-25T16:06:08.302Z,0.83
2023-02-25T16:09:14.677Z,1.05
2023-02-25T16:12:18.585Z,0.92
2023-02-25T16:15:27.955Z,0.95
2023-02-25T16:18:35.478Z,0.96
2023-02-25T16:21:47.165Z,0.96
2023-02-25T16:24:51.618Z,0.89
2023-02-25T16:28:01.694Z,1.04
2023-02-25T16:31:14.588Z,1.14
2023-02-25T16:34:23.334Z,1.07
2023-02-25T16:37:34.468Z,1.11
2023-02-25T16:40:38.855Z,0.96
2023-02-25T16:43:44.083Z,1.14
2023-02-25T16:46:50.768Z,0.99
2023-02-25T16:49:54.859Z,1.12
2023-02-25T16:53:00.149Z,1.22
2023-02-25T16:56:03.092Z,1.13
2023-02-25T16:59:16.027Z,1.08
2023-02-25T17:02:25.690Z,1.09
2023-02-25T17:05:31.192Z,0.92
2023-02-25T17:08:35.976Z,0.95
2023-02-25T17:11:38.428Z,0.88
2023-02-25T17:14:46.771Z,0.90
2023-02-25T17:17:52.742Z,1.02
2023-02-25T17:21:02.404Z,1.06
2023-02-25T17:24:11.773Z,0.84
2023-02-25T17:27:15.554Z,0.83
2023-02-25T17:30:39.917Z,0.63
2023-02-25T17:33:49.696Z,0.70
2023-02-25T17:36:54.660Z,0.83
2023-02-25T17:40:01.652Z,0.77
2023-02-25T17:43:23.262Z,0.78
2023-02-25T17:46:30.766Z,0.81
2023-02-25T17:49:35.625Z,0.81
2023-02-25T17:52:40.006Z,0.83
2023-02-25T17:55:44.708Z,0.83
2023-02-25T17:58:47.447Z,0.93
2023-02-25T18:01:54.765Z,0.83
2023-02-25T18:05:19.196Z,0.83
2023-02-25T18:08:23.754Z,0.91
2023-02-25T18:11:32.182Z,0.84
2023-02-25T18:14:38.413Z,0.74
2023-02-25T18:17:42.525Z,0.76
2023-02-25T18:20:45.756Z,0.76
2023-02-25T18:23:50.071Z,0.78
2023-02-25T18:27:19.882Z,0.59
2023-02-25T18:30:25.308Z,0.12
2023-02-25T18:33:28.750Z,-0.11
2023-02-25T18:36:32.235Z,-0.42
2023-02-25T18:39:37.844Z,-0.47
2023-02-25T18:42:42.177Z,-0.40
2023-02-25T18:45:45.934Z,-0.46
2023-02-25T18:48:49.080Z,-0.50
2023-02-25T18:51:52.134Z,-0.73
2023-02-25T18:54:55.140Z,-0.80
2023-02-25T18:57:59.539Z,-0.79
2023-02-25T19:01:02.309Z,-0.67
2023-02-25T19:04:04.515Z,-0.45
2023-02-25T19:07:11.446Z,-0.48
2023-02-25T19:10:17.746Z,-0.47
2023-02-25T19:13:28.420Z,-0.43
2023-02-25T19:16:31.620Z,-0.42
2023-02-25T19:19:35.127Z,-0.45
2023-02-25T19:22:41.964Z,-0.52
2023-02-25T19:25:47.220Z,-0.71
2023-02-25T19:28:51.346Z,-0.71
2023-02-25T19:31:54.375Z,-0.81
2023-02-25T19:34:57.502Z,-0.69
2023-02-25T19:38:00.758Z,-0.87
2023-02-25T19:41:05.596Z,-0.58
2023-02-25T19:44:09.721Z,-0.57
2023-02-25T19:47:12.231Z,-0.82
2023-02-25T19:50:16.562Z,-0.73
2023-02-25T19:53:19.203Z,-0.75
2023-02-25T19:56:21.915Z,-0.93
2023-02-25T19:59:26.349Z,-0.88
2023-02-25T20:02:30.147Z,-0.88
2023-02-25T20:05:34.540Z,-0.84
2023-02-25T20:08:38.535Z,-0.86
2023-02-25T20:11:43.017Z,-0.91
2023-02-25T20:14:48.102Z,-0.83
2023-02-25T20:17:50.495Z,-0.79
2023-02-25T20:20:53.748Z,-0.81
2023-02-25T20:24:02.056Z,-0.81
2023-02-25T20:27:06.118Z,-0.70
2023-02-25T20:30:16.828Z,-0.59
2023-02-25T20:33:19.975Z,-0.55
2023-02-25T20:36:25.342Z,-0.55
2023-02-25T20:39:52.676Z,-0.48
2023-02-25T20:42:55.526Z,-0.48
2023-02-25T20:46:00.486Z,-0.52
2023-02-25T20:49:05.329Z,-0.53
2023-02-25T20:52:07.938Z,-0.55
2023-02-25T20:55:11.605Z,-0.48
2023-02-25T20:58:14.812Z,-0.55
2023-02-25T21:01:19.414Z,-0.75
2023-02-25T21:04:23.861Z,-0.72
2023-02-25T21:07:26.476Z,-0.81
2023-02-25T21:10:29.730Z,-0.87
2023-02-25T21:13:33.308Z,-0.70
2023-02-25T21:16:37.853Z,-0.71
2023-02-25T21:19:40.796Z,-0.66
2023-02-25T21:22:43.315Z,-0.41
2023-02-25T21:25:47.437Z,-0.59
2023-02-25T21:28:49.842Z,-0.55
2023-02-25T21:31:53.958Z,-0.58
2023-02-25T21:34:57.960Z,-0.57
2023-02-25T21:38:00.032Z,-0.57
2023-02-25T21:41:06.788Z,-0.66
2023-02-25T21:44:09.688Z,-0.60
2023-02-25T21:47:13.944Z,-0.58
2023-02-25T21:50:16.451Z,-0.57
2023-02-25T21:53:18.798Z,-0.69
2023-02-25T21:56:20.958Z,-0.74
2023-02-25T21:59:22.728Z,-0.71
2023-02-25T22:02:26.671Z,-0.65
2023-02-25T22:05:28.381Z,-0.72
2023-02-25T22:08:33.538Z,-0.75
2023-02-25T22:11:37.326Z,-0.86
2023-02-25T22:14:39.116Z,-0.77
2023-02-25T22:17:42.327Z,-0.80
2023-02-25T22:20:44.124Z,-0.80
2023-02-25T22:23:46.159Z,-0.79
2023-02-25T22:26:47.981Z,-0.76
2023-02-25T22:29:49.897Z,-0.73
2023-02-25T22:32:53.047Z,-0.63
2023-02-25T22:35:56.579Z,-0.63
2023-02-25T22:38:58.340Z,-0.70
2023-02-25T22:42:02.524Z,-0.56
2023-02-25T22:45:05.093Z,-0.60
2023-02-25T22:48:08.311Z,-0.68
2023-02-25T22:51:11.465Z,-0.72
2023-02-25T22:54:15.053Z,-0.68
2023-02-25T22:57:16.877Z,-0.84
2023-02-25T23:00:19.291Z,-0.91
2023-02-25T23:03:22.641Z,-0.77
2023-02-25T23:06:37.500Z,-0.86
2023-02-25T23:09:44.448Z,-0.83
2023-02-25T23:12:46.209Z,-0.74
2023-02-25T23:15:48.177Z,-0.77
2023-02-25T23:18:52.223Z,-0.75
2023-02-25T23:21:54.020Z,-0.73
2023-02-25T23:24:55.802Z,-0.62
2023-02-25T23:27:58.133Z,-0.60
2023-02-25T23:31:00.012Z,-0.54
2023-02-25T23:34:05.052Z,-0.60
2023-02-25T23:37:06.816Z,-0.61
2023-02-25T23:40:10.007Z,-0.61
2023-02-25T23:43:11.802Z,-0.67
2023-02-25T23:46:13.576Z,-0.62
2023-02-25T23:49:17.083Z,-0.63
2023-02-25T23:52:18.907Z,-0.76
2023-02-25T23:55:21.048Z,-0.89
2023-02-25T23:58:22.849Z,-0.88
